This is the latest recevied weather packets stored in our database for station/object KC5EZZ-2. If no packets are shown the sender has not sent any weather packets the latest 10 day(s).
| Time | Temp. | Humidity | Pressure | Rain* | Wind** | Luminosity | Snow |
|---|---|---|---|---|---|---|---|
| 1777685688 | 12.78° C | - | - | 0 mm | 1.79 m/s, 35° | - | - |
| 1777685637 | 13.33° C | - | - | 0 mm | 1.79 m/s, 32° | - | - |
| 1777685389 | 13.33° C | - | - | 0 mm | 1.79 m/s, 32° | - | - |
| 1777685089 | 13.33° C | - | - | 0 mm | 2.24 m/s, 28° | - | - |
| 1777684787 | 13.33° C | - | - | 0 mm | 1.79 m/s, 11° | - | - |
| 1777684487 | 12.78° C | - | - | 0 mm | 2.68 m/s, 48° | - | - |
| 1777684188 | 13.33° C | - | - | 0 mm | 2.24 m/s, 34° | - | - |
| 1777683886 | 13.33° C | - | - | 0 mm | 2.68 m/s, 38° | - | - |
| 1777683586 | 13.33° C | - | - | 0 mm | 3.58 m/s, 41° | - | - |
| 1777683287 | 13.33° C | - | - | 0 mm | 4.47 m/s, 37° | - | - |
| 1777682984 | 13.33° C | - | - | 0 mm | 4.47 m/s, 39° | - | - |
| 1777682684 | 13.33° C | - | - | 0 mm | 4.47 m/s, 38° | - | - |
| 1777682385 | 13.89° C | - | - | 0 mm | 3.13 m/s, 38° | - | - |
| 1777682082 | 13.89° C | - | - | 0 mm | 4.92 m/s, 20° | - | - |
| 1777681484 | 13.89° C | - | - | 0 mm | 5.81 m/s, 18° | - | - |
| 1777681181 | 13.89° C | - | - | 0 mm | 5.36 m/s, 37° | - | - |
| 1777680881 | 14.44° C | - | - | 0 mm | 4.02 m/s, 4° | - | - |
| 1777680582 | 14.44° C | - | - | 0 mm | 4.02 m/s, 20° | - | - |
| 1777680280 | 13.89° C | - | - | 0 mm | 4.02 m/s, 25° | - | - |
| 1777679980 | 14.44° C | - | - | 0 mm | 4.92 m/s, 7° | - | - |
| 1777679681 | 13.89° C | - | - | 0 mm | 4.02 m/s, 3° | - | - |
| 1777679378 | 13.89° C | - | - | 0 mm | 4.92 m/s, 23° | - | - |
| 1777679079 | 13.89° C | - | - | 0 mm | 3.58 m/s, 10° | - | - |
| 1777678780 | 13.33° C | - | - | 0 mm | 5.36 m/s, 31° | - | - |
| 1777678477 | 13.89° C | - | - | 0 mm | 4.92 m/s, 7° | - | - |
* Rain latest hour (hover to see other rain measurements)
** Current wind speed in m/s (hover to see current wind gust speed)